sensor_id;sensor_type;location;lat;lon;timestamp;P1;durP1;ratioP1;P2;durP2;ratioP2
25191;SDS011;13143;50.924;5.320;2023-04-24T00:01:52;23.30;;;10.50;;
25191;SDS011;13143;50.924;5.320;2023-04-24T00:04:18;16.42;;;9.80;;
25191;SDS011;13143;50.924;5.320;2023-04-24T00:06:44;22.67;;;10.40;;
25191;SDS011;13143;50.924;5.320;2023-04-24T00:09:14;24.30;;;10.93;;
25191;SDS011;13143;50.924;5.320;2023-04-24T00:11:41;25.98;;;10.85;;
25191;SDS011;13143;50.924;5.320;2023-04-24T00:14:07;22.20;;;10.75;;
25191;SDS011;13143;50.924;5.320;2023-04-24T00:16:33;16.77;;;10.65;;
25191;SDS011;13143;50.924;5.320;2023-04-24T00:18:59;24.42;;;10.65;;
25191;SDS011;13143;50.924;5.320;2023-04-24T00:21:26;19.73;;;10.70;;
25191;SDS011;13143;50.924;5.320;2023-04-24T00:23:52;19.27;;;11.07;;
25191;SDS011;13143;50.924;5.320;2023-04-24T00:26:18;23.55;;;11.15;;
25191;SDS011;13143;50.924;5.320;2023-04-24T00:28:44;17.98;;;11.50;;
25191;SDS011;13143;50.924;5.320;2023-04-24T00:31:10;20.17;;;11.65;;
25191;SDS011;13143;50.924;5.320;2023-04-24T00:33:36;20.40;;;11.70;;
25191;SDS011;13143;50.924;5.320;2023-04-24T00:36:02;24.52;;;12.38;;
25191;SDS011;13143;50.924;5.320;2023-04-24T00:38:28;25.00;;;13.25;;
25191;SDS011;13143;50.924;5.320;2023-04-24T00:40:54;26.77;;;14.07;;
25191;SDS011;13143;50.924;5.320;2023-04-24T00:43:21;24.13;;;13.43;;
25191;SDS011;13143;50.924;5.320;2023-04-24T00:45:47;22.10;;;13.35;;
25191;SDS011;13143;50.924;5.320;2023-04-24T00:48:13;29.67;;;14.50;;
25191;SDS011;13143;50.924;5.320;2023-04-24T00:50:40;26.00;;;14.23;;
25191;SDS011;13143;50.924;5.320;2023-04-24T00:53:07;25.85;;;14.90;;
25191;SDS011;13143;50.924;5.320;2023-04-24T00:55:33;27.75;;;14.90;;
25191;SDS011;13143;50.924;5.320;2023-04-24T00:57:59;28.65;;;14.02;;
25191;SDS011;13143;50.924;5.320;2023-04-24T01:00:25;25.10;;;13.68;;
25191;SDS011;13143;50.924;5.320;2023-04-24T01:02:52;23.92;;;13.20;;
25191;SDS011;13143;50.924;5.320;2023-04-24T01:05:18;30.55;;;14.70;;
25191;SDS011;13143;50.924;5.320;2023-04-24T01:07:45;28.05;;;14.90;;
25191;SDS011;13143;50.924;5.320;2023-04-24T01:10:14;27.13;;;14.15;;
25191;SDS011;13143;50.924;5.320;2023-04-24T01:12:41;20.52;;;13.45;;
25191;SDS011;13143;50.924;5.320;2023-04-24T01:15:07;22.48;;;13.60;;
25191;SDS011;13143;50.924;5.320;2023-04-24T01:17:34;26.17;;;14.63;;
25191;SDS011;13143;50.924;5.320;2023-04-24T01:20:00;25.63;;;14.30;;
25191;SDS011;13143;50.924;5.320;2023-04-24T01:22:29;25.77;;;14.18;;
25191;SDS011;13143;50.924;5.320;2023-04-24T01:24:55;30.75;;;14.32;;
25191;SDS011;13143;50.924;5.320;2023-04-24T01:27:22;26.02;;;14.18;;
25191;SDS011;13143;50.924;5.320;2023-04-24T01:29:48;24.02;;;13.25;;
25191;SDS011;13143;50.924;5.320;2023-04-24T01:32:14;25.25;;;13.93;;
25191;SDS011;13143;50.924;5.320;2023-04-24T01:34:41;24.95;;;13.98;;
25191;SDS011;13143;50.924;5.320;2023-04-24T01:37:08;30.10;;;14.45;;
25191;SDS011;13143;50.924;5.320;2023-04-24T01:39:34;27.17;;;14.15;;
25191;SDS011;13143;50.924;5.320;2023-04-24T01:42:00;21.55;;;12.93;;
25191;SDS011;13143;50.924;5.320;2023-04-24T01:44:27;24.92;;;12.55;;
25191;SDS011;13143;50.924;5.320;2023-04-24T01:46:54;35.03;;;13.85;;
25191;SDS011;13143;50.924;5.320;2023-04-24T01:49:21;26.90;;;13.50;;
25191;SDS011;13143;50.924;5.320;2023-04-24T01:51:47;23.40;;;12.82;;
25191;SDS011;13143;50.924;5.320;2023-04-24T01:54:13;25.67;;;14.10;;
25191;SDS011;13143;50.924;5.320;2023-04-24T01:56:43;25.73;;;13.43;;
25191;SDS011;13143;50.924;5.320;2023-04-24T01:59:12;24.25;;;14.20;;
25191;SDS011;13143;50.924;5.320;2023-04-24T02:01:38;26.25;;;13.30;;
25191;SDS011;13143;50.924;5.320;2023-04-24T02:04:05;29.13;;;13.20;;
25191;SDS011;13143;50.924;5.320;2023-04-24T02:06:32;30.92;;;13.90;;
25191;SDS011;13143;50.924;5.320;2023-04-24T02:08:58;21.20;;;13.90;;
25191;SDS011;13143;50.924;5.320;2023-04-24T02:11:25;26.67;;;14.30;;
25191;SDS011;13143;50.924;5.320;2023-04-24T02:13:52;23.92;;;14.07;;
25191;SDS011;13143;50.924;5.320;2023-04-24T02:16:18;26.85;;;14.30;;
25191;SDS011;13143;50.924;5.320;2023-04-24T02:18:44;24.75;;;13.52;;
25191;SDS011;13143;50.924;5.320;2023-04-24T02:21:10;29.13;;;14.50;;
25191;SDS011;13143;50.924;5.320;2023-04-24T02:23:36;26.90;;;14.35;;
25191;SDS011;13143;50.924;5.320;2023-04-24T02:26:02;22.05;;;13.55;;
25191;SDS011;13143;50.924;5.320;2023-04-24T02:28:29;27.42;;;14.10;;
25191;SDS011;13143;50.924;5.320;2023-04-24T02:30:55;24.35;;;13.30;;
25191;SDS011;13143;50.924;5.320;2023-04-24T02:33:21;25.90;;;14.10;;
25191;SDS011;13143;50.924;5.320;2023-04-24T02:35:47;21.75;;;13.57;;
25191;SDS011;13143;50.924;5.320;2023-04-24T02:38:13;25.52;;;13.68;;
25191;SDS011;13143;50.924;5.320;2023-04-24T02:40:39;24.23;;;12.98;;
25191;SDS011;13143;50.924;5.320;2023-04-24T02:43:05;19.15;;;11.93;;
25191;SDS011;13143;50.924;5.320;2023-04-24T02:45:31;19.98;;;12.07;;
25191;SDS011;13143;50.924;5.320;2023-04-24T02:48:00;20.13;;;12.27;;
25191;SDS011;13143;50.924;5.320;2023-04-24T02:50:26;16.02;;;11.15;;
25191;SDS011;13143;50.924;5.320;2023-04-24T02:52:52;19.05;;;11.73;;
25191;SDS011;13143;50.924;5.320;2023-04-24T02:55:18;24.95;;;12.57;;
25191;SDS011;13143;50.924;5.320;2023-04-24T02:57:44;20.52;;;11.23;;
25191;SDS011;13143;50.924;5.320;2023-04-24T03:00:10;19.38;;;11.55;;
25191;SDS011;13143;50.924;5.320;2023-04-24T03:02:37;20.02;;;12.27;;
25191;SDS011;13143;50.924;5.320;2023-04-24T03:05:03;16.20;;;11.57;;
25191;SDS011;13143;50.924;5.320;2023-04-24T03:07:29;21.98;;;12.63;;
25191;SDS011;13143;50.924;5.320;2023-04-24T03:09:57;19.10;;;12.52;;
25191;SDS011;13143;50.924;5.320;2023-04-24T03:12:23;18.55;;;12.45;;
25191;SDS011;13143;50.924;5.320;2023-04-24T03:14:49;19.38;;;13.00;;
25191;SDS011;13143;50.924;5.320;2023-04-24T03:17:16;26.20;;;12.65;;
25191;SDS011;13143;50.924;5.320;2023-04-24T03:19:42;21.55;;;13.10;;
25191;SDS011;13143;50.924;5.320;2023-04-24T03:22:08;16.90;;;12.65;;
25191;SDS011;13143;50.924;5.320;2023-04-24T03:24:34;19.02;;;12.20;;
25191;SDS011;13143;50.924;5.320;2023-04-24T03:27:00;18.58;;;12.65;;
25191;SDS011;13143;50.924;5.320;2023-04-24T03:29:26;19.10;;;11.90;;
25191;SDS011;13143;50.924;5.320;2023-04-24T03:31:52;18.40;;;11.77;;
25191;SDS011;13143;50.924;5.320;2023-04-24T03:34:18;18.77;;;11.25;;
25191;SDS011;13143;50.924;5.320;2023-04-24T03:36:44;20.50;;;12.32;;
25191;SDS011;13143;50.924;5.320;2023-04-24T03:39:13;17.23;;;11.25;;
25191;SDS011;13143;50.924;5.320;2023-04-24T03:41:39;17.17;;;11.75;;
25191;SDS011;13143;50.924;5.320;2023-04-24T03:44:05;21.00;;;12.90;;
25191;SDS011;13143;50.924;5.320;2023-04-24T03:46:31;19.35;;;11.52;;
25191;SDS011;13143;50.924;5.320;2023-04-24T03:48:57;18.83;;;11.68;;
25191;SDS011;13143;50.924;5.320;2023-04-24T03:51:23;16.33;;;10.75;;
25191;SDS011;13143;50.924;5.320;2023-04-24T03:53:50;16.30;;;11.50;;
25191;SDS011;13143;50.924;5.320;2023-04-24T03:56:16;19.83;;;11.43;;
25191;SDS011;13143;50.924;5.320;2023-04-24T03:58:42;18.63;;;12.30;;
25191;SDS011;13143;50.924;5.320;2023-04-24T04:01:09;20.92;;;11.93;;
25191;SDS011;13143;50.924;5.320;2023-04-24T04:03:37;23.23;;;12.13;;
25191;SDS011;13143;50.924;5.320;2023-04-24T04:06:03;18.70;;;10.88;;
25191;SDS011;13143;50.924;5.320;2023-04-24T04:08:29;19.58;;;11.88;;
25191;SDS011;13143;50.924;5.320;2023-04-24T04:10:55;20.85;;;12.55;;
25191;SDS011;13143;50.924;5.320;2023-04-24T04:13:21;21.35;;;12.20;;
25191;SDS011;13143;50.924;5.320;2023-04-24T04:15:47;19.17;;;11.10;;
25191;SDS011;13143;50.924;5.320;2023-04-24T04:18:14;16.60;;;11.05;;
25191;SDS011;13143;50.924;5.320;2023-04-24T04:20:41;14.65;;;10.23;;
25191;SDS011;13143;50.924;5.320;2023-04-24T04:23:07;17.40;;;10.95;;
25191;SDS011;13143;50.924;5.320;2023-04-24T04:25:33;17.35;;;9.98;;
25191;SDS011;13143;50.924;5.320;2023-04-24T04:27:59;17.75;;;10.48;;
25191;SDS011;13143;50.924;5.320;2023-04-24T04:30:25;15.93;;;9.23;;
25191;SDS011;13143;50.924;5.320;2023-04-24T04:32:51;15.75;;;9.18;;
25191;SDS011;13143;50.924;5.320;2023-04-24T04:35:18;17.20;;;9.90;;
25191;SDS011;13143;50.924;5.320;2023-04-24T04:37:44;15.63;;;8.93;;
25191;SDS011;13143;50.924;5.320;2023-04-24T04:40:11;14.25;;;9.07;;
25191;SDS011;13143;50.924;5.320;2023-04-24T04:42:37;15.57;;;10.43;;
25191;SDS011;13143;50.924;5.320;2023-04-24T04:45:08;16.67;;;9.70;;
25191;SDS011;13143;50.924;5.320;2023-04-24T04:47:34;15.52;;;9.32;;
25191;SDS011;13143;50.924;5.320;2023-04-24T04:50:00;14.98;;;9.32;;
25191;SDS011;13143;50.924;5.320;2023-04-24T04:52:26;14.85;;;9.10;;
25191;SDS011;13143;50.924;5.320;2023-04-24T04:54:53;13.85;;;9.13;;
25191;SDS011;13143;50.924;5.320;2023-04-24T04:57:19;16.17;;;8.95;;
25191;SDS011;13143;50.924;5.320;2023-04-24T04:59:45;17.95;;;8.93;;
25191;SDS011;13143;50.924;5.320;2023-04-24T05:02:12;13.50;;;9.73;;
25191;SDS011;13143;50.924;5.320;2023-04-24T05:04:38;14.35;;;8.63;;
25191;SDS011;13143;50.924;5.320;2023-04-24T05:07:04;19.58;;;8.40;;
25191;SDS011;13143;50.924;5.320;2023-04-24T05:09:30;13.63;;;8.38;;
25191;SDS011;13143;50.924;5.320;2023-04-24T05:11:57;16.35;;;8.10;;
25191;SDS011;13143;50.924;5.320;2023-04-24T05:14:23;12.27;;;8.05;;
25191;SDS011;13143;50.924;5.320;2023-04-24T05:16:49;12.32;;;8.40;;
25191;SDS011;13143;50.924;5.320;2023-04-24T05:19:15;12.85;;;7.95;;
25191;SDS011;13143;50.924;5.320;2023-04-24T05:21:41;13.10;;;8.23;;
25191;SDS011;13143;50.924;5.320;2023-04-24T05:24:07;13.25;;;8.13;;
25191;SDS011;13143;50.924;5.320;2023-04-24T05:26:33;15.30;;;8.35;;
25191;SDS011;13143;50.924;5.320;2023-04-24T05:29:01;14.55;;;8.70;;
25191;SDS011;13143;50.924;5.320;2023-04-24T05:31:27;15.95;;;8.02;;
25191;SDS011;13143;50.924;5.320;2023-04-24T05:33:53;12.13;;;8.30;;
25191;SDS011;13143;50.924;5.320;2023-04-24T05:36:20;13.88;;;7.90;;
25191;SDS011;13143;50.924;5.320;2023-04-24T05:38:46;11.95;;;7.63;;
25191;SDS011;13143;50.924;5.320;2023-04-24T05:41:12;14.23;;;7.03;;
25191;SDS011;13143;50.924;5.320;2023-04-24T05:43:38;9.50;;;6.68;;
25191;SDS011;13143;50.924;5.320;2023-04-24T05:46:04;9.48;;;6.25;;
25191;SDS011;13143;50.924;5.320;2023-04-24T05:48:30;7.97;;;5.40;;
25191;SDS011;13143;50.924;5.320;2023-04-24T05:50:56;8.32;;;5.13;;
25191;SDS011;13143;50.924;5.320;2023-04-24T05:53:22;8.05;;;4.10;;
25191;SDS011;13143;50.924;5.320;2023-04-24T05:55:48;8.82;;;4.38;;
25191;SDS011;13143;50.924;5.320;2023-04-24T05:58:15;9.23;;;4.90;;
25191;SDS011;13143;50.924;5.320;2023-04-24T06:00:41;11.05;;;5.03;;
25191;SDS011;13143;50.924;5.320;2023-04-24T06:03:08;9.75;;;5.40;;
25191;SDS011;13143;50.924;5.320;2023-04-24T06:05:34;9.95;;;5.68;;
25191;SDS011;13143;50.924;5.320;2023-04-24T06:08:00;9.88;;;6.53;;
25191;SDS011;13143;50.924;5.320;2023-04-24T06:10:27;11.25;;;6.65;;
25191;SDS011;13143;50.924;5.320;2023-04-24T06:12:53;9.95;;;6.25;;
25191;SDS011;13143;50.924;5.320;2023-04-24T06:15:21;14.18;;;7.78;;
25191;SDS011;13143;50.924;5.320;2023-04-24T06:17:47;11.52;;;7.30;;
25191;SDS011;13143;50.924;5.320;2023-04-24T06:20:13;12.85;;;7.53;;
25191;SDS011;13143;50.924;5.320;2023-04-24T06:22:39;12.10;;;7.38;;
25191;SDS011;13143;50.924;5.320;2023-04-24T06:25:06;13.25;;;7.53;;
25191;SDS011;13143;50.924;5.320;2023-04-24T06:27:32;14.43;;;7.47;;
25191;SDS011;13143;50.924;5.320;2023-04-24T06:29:58;12.95;;;7.82;;
25191;SDS011;13143;50.924;5.320;2023-04-24T06:32:24;11.20;;;7.15;;
25191;SDS011;13143;50.924;5.320;2023-04-24T06:34:52;12.70;;;6.43;;
25191;SDS011;13143;50.924;5.320;2023-04-24T06:37:19;11.10;;;7.35;;
25191;SDS011;13143;50.924;5.320;2023-04-24T06:39:46;15.05;;;6.63;;
25191;SDS011;13143;50.924;5.320;2023-04-24T06:42:12;10.80;;;7.60;;
25191;SDS011;13143;50.924;5.320;2023-04-24T06:44:38;13.95;;;7.30;;
25191;SDS011;13143;50.924;5.320;2023-04-24T06:47:06;12.55;;;8.20;;
25191;SDS011;13143;50.924;5.320;2023-04-24T06:49:34;15.77;;;7.53;;
25191;SDS011;13143;50.924;5.320;2023-04-24T06:52:03;24.23;;;8.15;;
25191;SDS011;13143;50.924;5.320;2023-04-24T06:54:30;13.80;;;8.45;;
25191;SDS011;13143;50.924;5.320;2023-04-24T06:56:56;18.17;;;8.63;;
25191;SDS011;13143;50.924;5.320;2023-04-24T06:59:23;14.43;;;9.25;;
25191;SDS011;13143;50.924;5.320;2023-04-24T07:01:50;17.42;;;8.82;;
25191;SDS011;13143;50.924;5.320;2023-04-24T07:04:18;18.10;;;9.15;;
25191;SDS011;13143;50.924;5.320;2023-04-24T07:06:45;16.20;;;9.60;;
25191;SDS011;13143;50.924;5.320;2023-04-24T07:09:11;16.80;;;9.55;;
25191;SDS011;13143;50.924;5.320;2023-04-24T07:11:39;14.85;;;9.52;;
25191;SDS011;13143;50.924;5.320;2023-04-24T07:14:06;17.73;;;11.27;;
25191;SDS011;13143;50.924;5.320;2023-04-24T07:16:32;19.98;;;11.75;;
25191;SDS011;13143;50.924;5.320;2023-04-24T07:18:58;18.52;;;10.73;;
25191;SDS011;13143;50.924;5.320;2023-04-24T07:21:25;22.25;;;11.38;;
25191;SDS011;13143;50.924;5.320;2023-04-24T07:23:52;19.30;;;11.45;;
25191;SDS011;13143;50.924;5.320;2023-04-24T07:26:19;19.98;;;11.98;;
25191;SDS011;13143;50.924;5.320;2023-04-24T07:28:46;21.50;;;11.38;;
25191;SDS011;13143;50.924;5.320;2023-04-24T07:31:12;17.65;;;10.70;;
25191;SDS011;13143;50.924;5.320;2023-04-24T07:33:38;20.42;;;11.82;;
25191;SDS011;13143;50.924;5.320;2023-04-24T07:36:04;21.30;;;11.00;;
25191;SDS011;13143;50.924;5.320;2023-04-24T07:38:30;19.98;;;11.85;;
25191;SDS011;13143;50.924;5.320;2023-04-24T07:40:56;25.58;;;12.10;;
25191;SDS011;13143;50.924;5.320;2023-04-24T07:43:23;19.45;;;11.27;;
25191;SDS011;13143;50.924;5.320;2023-04-24T07:45:49;20.52;;;11.77;;
25191;SDS011;13143;50.924;5.320;2023-04-24T07:48:16;19.27;;;11.73;;
25191;SDS011;13143;50.924;5.320;2023-04-24T07:50:43;21.13;;;12.32;;
25191;SDS011;13143;50.924;5.320;2023-04-24T07:53:10;19.77;;;12.60;;
25191;SDS011;13143;50.924;5.320;2023-04-24T07:55:36;20.88;;;12.40;;
25191;SDS011;13143;50.924;5.320;2023-04-24T07:58:02;23.27;;;12.70;;
25191;SDS011;13143;50.924;5.320;2023-04-24T08:00:28;29.10;;;13.73;;
25191;SDS011;13143;50.924;5.320;2023-04-24T08:02:54;26.40;;;14.20;;
25191;SDS011;13143;50.924;5.320;2023-04-24T08:05:21;23.08;;;13.88;;
25191;SDS011;13143;50.924;5.320;2023-04-24T08:07:47;25.45;;;14.40;;
25191;SDS011;13143;50.924;5.320;2023-04-24T08:10:15;31.85;;;14.85;;
25191;SDS011;13143;50.924;5.320;2023-04-24T08:12:41;21.52;;;12.95;;
25191;SDS011;13143;50.924;5.320;2023-04-24T08:15:07;26.42;;;13.82;;
25191;SDS011;13143;50.924;5.320;2023-04-24T08:17:34;28.70;;;12.85;;
25191;SDS011;13143;50.924;5.320;2023-04-24T08:20:01;22.35;;;11.73;;
25191;SDS011;13143;50.924;5.320;2023-04-24T08:22:29;19.55;;;11.45;;
25191;SDS011;13143;50.924;5.320;2023-04-24T08:24:55;24.27;;;12.50;;
25191;SDS011;13143;50.924;5.320;2023-04-24T08:27:22;24.80;;;11.35;;
25191;SDS011;13143;50.924;5.320;2023-04-24T08:29:49;20.67;;;10.90;;
25191;SDS011;13143;50.924;5.320;2023-04-24T08:32:15;19.85;;;11.43;;
25191;SDS011;13143;50.924;5.320;2023-04-24T08:34:42;23.55;;;10.65;;
25191;SDS011;13143;50.924;5.320;2023-04-24T08:37:08;19.05;;;10.52;;
25191;SDS011;13143;50.924;5.320;2023-04-24T08:39:34;24.45;;;10.40;;
25191;SDS011;13143;50.924;5.320;2023-04-24T08:42:00;21.02;;;10.55;;
25191;SDS011;13143;50.924;5.320;2023-04-24T08:44:31;25.45;;;10.23;;
25191;SDS011;13143;50.924;5.320;2023-04-24T08:46:58;18.42;;;8.23;;
25191;SDS011;13143;50.924;5.320;2023-04-24T08:49:24;19.38;;;9.90;;
25191;SDS011;13143;50.924;5.320;2023-04-24T08:51:52;22.83;;;8.50;;
25191;SDS011;13143;50.924;5.320;2023-04-24T08:54:18;21.05;;;8.00;;
25191;SDS011;13143;50.924;5.320;2023-04-24T08:56:45;19.23;;;7.95;;
25191;SDS011;13143;50.924;5.320;2023-04-24T08:59:14;16.30;;;7.68;;
25191;SDS011;13143;50.924;5.320;2023-04-24T09:01:41;23.02;;;8.15;;
25191;SDS011;13143;50.924;5.320;2023-04-24T09:04:09;17.55;;;6.45;;
25191;SDS011;13143;50.924;5.320;2023-04-24T09:06:36;14.40;;;6.75;;
25191;SDS011;13143;50.924;5.320;2023-04-24T09:09:02;19.17;;;5.82;;
25191;SDS011;13143;50.924;5.320;2023-04-24T09:11:31;19.85;;;5.95;;
25191;SDS011;13143;50.924;5.320;2023-04-24T09:13:58;16.60;;;5.60;;
25191;SDS011;13143;50.924;5.320;2023-04-24T09:16:26;14.85;;;5.85;;
25191;SDS011;13143;50.924;5.320;2023-04-24T09:18:52;15.20;;;6.13;;
25191;SDS011;13143;50.924;5.320;2023-04-24T09:21:22;16.58;;;5.55;;
25191;SDS011;13143;50.924;5.320;2023-04-24T09:23:58;17.90;;;5.75;;
25191;SDS011;13143;50.924;5.320;2023-04-24T09:26:25;16.83;;;6.20;;
25191;SDS011;13143;50.924;5.320;2023-04-24T09:28:54;18.80;;;6.88;;
25191;SDS011;13143;50.924;5.320;2023-04-24T09:31:20;21.48;;;6.82;;
25191;SDS011;13143;50.924;5.320;2023-04-24T09:33:55;20.00;;;6.88;;
25191;SDS011;13143;50.924;5.320;2023-04-24T09:38:57;21.02;;;8.50;;
25191;SDS011;13143;50.924;5.320;2023-04-24T09:41:27;27.13;;;8.55;;
25191;SDS011;13143;50.924;5.320;2023-04-24T09:43:56;24.63;;;8.65;;
25191;SDS011;13143;50.924;5.320;2023-04-24T09:46:35;21.42;;;8.65;;
25191;SDS011;13143;50.924;5.320;2023-04-24T09:49:35;25.38;;;8.88;;
25191;SDS011;13143;50.924;5.320;2023-04-24T09:52:08;21.73;;;10.40;;
25191;SDS011;13143;50.924;5.320;2023-04-24T09:54:35;33.13;;;11.20;;
25191;SDS011;13143;50.924;5.320;2023-04-24T09:57:04;25.23;;;10.65;;
25191;SDS011;13143;50.924;5.320;2023-04-24T09:59:32;30.23;;;11.02;;
25191;SDS011;13143;50.924;5.320;2023-04-24T10:01:59;25.45;;;10.57;;
25191;SDS011;13143;50.924;5.320;2023-04-24T10:04:27;31.10;;;10.63;;
25191;SDS011;13143;50.924;5.320;2023-04-24T10:06:57;24.45;;;9.35;;
25191;SDS011;13143;50.924;5.320;2023-04-24T10:09:24;21.70;;;10.07;;
25191;SDS011;13143;50.924;5.320;2023-04-24T10:11:52;28.10;;;10.13;;
25191;SDS011;13143;50.924;5.320;2023-04-24T10:14:19;26.50;;;9.02;;
25191;SDS011;13143;50.924;5.320;2023-04-24T10:16:48;23.48;;;9.35;;
25191;SDS011;13143;50.924;5.320;2023-04-24T10:19:15;22.40;;;7.57;;
25191;SDS011;13143;50.924;5.320;2023-04-24T10:21:44;19.70;;;7.82;;
25191;SDS011;13143;50.924;5.320;2023-04-24T10:24:12;15.05;;;6.97;;
25191;SDS011;13143;50.924;5.320;2023-04-24T10:26:40;21.30;;;7.10;;
25191;SDS011;13143;50.924;5.320;2023-04-24T10:29:06;17.77;;;7.47;;
25191;SDS011;13143;50.924;5.320;2023-04-24T10:31:36;20.77;;;7.40;;
25191;SDS011;13143;50.924;5.320;2023-04-24T10:34:03;17.35;;;7.40;;
25191;SDS011;13143;50.924;5.320;2023-04-24T10:36:31;28.40;;;8.93;;
25191;SDS011;13143;50.924;5.320;2023-04-24T10:39:00;16.85;;;7.82;;
25191;SDS011;13143;50.924;5.320;2023-04-24T10:41:30;19.02;;;7.55;;
25191;SDS011;13143;50.924;5.320;2023-04-24T10:44:06;19.83;;;8.68;;
25191;SDS011;13143;50.924;5.320;2023-04-24T10:46:33;27.08;;;8.23;;
25191;SDS011;13143;50.924;5.320;2023-04-24T10:48:59;19.35;;;7.63;;
25191;SDS011;13143;50.924;5.320;2023-04-24T10:54:29;18.75;;;5.93;;
25191;SDS011;13143;50.924;5.320;2023-04-24T11:02:40;19.27;;;6.60;;
25191;SDS011;13143;50.924;5.320;2023-04-24T11:05:14;18.48;;;6.22;;
25191;SDS011;13143;50.924;5.320;2023-04-24T11:10:44;16.00;;;6.30;;
25191;SDS011;13143;50.924;5.320;2023-04-24T11:13:14;16.55;;;6.03;;
25191;SDS011;13143;50.924;5.320;2023-04-24T11:15:46;16.25;;;6.32;;
25191;SDS011;13143;50.924;5.320;2023-04-24T11:18:52;17.48;;;5.97;;
25191;SDS011;13143;50.924;5.320;2023-04-24T11:21:25;17.30;;;5.55;;
25191;SDS011;13143;50.924;5.320;2023-04-24T11:23:56;16.98;;;5.43;;
25191;SDS011;13143;50.924;5.320;2023-04-24T11:26:23;13.27;;;5.30;;
25191;SDS011;13143;50.924;5.320;2023-04-24T11:29:06;13.43;;;5.65;;
25191;SDS011;13143;50.924;5.320;2023-04-24T11:31:40;12.80;;;5.28;;
25191;SDS011;13143;50.924;5.320;2023-04-24T11:34:14;13.40;;;5.25;;
25191;SDS011;13143;50.924;5.320;2023-04-24T11:36:45;12.90;;;5.20;;
25191;SDS011;13143;50.924;5.320;2023-04-24T11:39:12;17.65;;;4.93;;
25191;SDS011;13143;50.924;5.320;2023-04-24T11:41:39;13.63;;;5.63;;
25191;SDS011;13143;50.924;5.320;2023-04-24T11:44:06;9.82;;;5.13;;
25191;SDS011;13143;50.924;5.320;2023-04-24T11:46:33;18.08;;;5.90;;
25191;SDS011;13143;50.924;5.320;2023-04-24T11:48:59;16.55;;;5.28;;
25191;SDS011;13143;50.924;5.320;2023-04-24T11:51:26;13.73;;;4.75;;
25191;SDS011;13143;50.924;5.320;2023-04-24T11:53:53;15.57;;;5.20;;
25191;SDS011;13143;50.924;5.320;2023-04-24T11:56:21;17.10;;;5.10;;
25191;SDS011;13143;50.924;5.320;2023-04-24T11:58:48;17.60;;;5.78;;
25191;SDS011;13143;50.924;5.320;2023-04-24T12:01:17;12.88;;;6.13;;
25191;SDS011;13143;50.924;5.320;2023-04-24T12:03:47;16.88;;;6.30;;
25191;SDS011;13143;50.924;5.320;2023-04-24T12:06:13;16.33;;;5.55;;
25191;SDS011;13143;50.924;5.320;2023-04-24T12:08:39;9.77;;;4.90;;
25191;SDS011;13143;50.924;5.320;2023-04-24T12:11:06;11.65;;;4.72;;
25191;SDS011;13143;50.924;5.320;2023-04-24T12:13:33;11.20;;;4.63;;
25191;SDS011;13143;50.924;5.320;2023-04-24T12:16:01;9.90;;;3.75;;
25191;SDS011;13143;50.924;5.320;2023-04-24T12:18:29;10.27;;;4.78;;
25191;SDS011;13143;50.924;5.320;2023-04-24T12:20:55;10.25;;;3.72;;
25191;SDS011;13143;50.924;5.320;2023-04-24T12:23:43;9.95;;;4.57;;
25191;SDS011;13143;50.924;5.320;2023-04-24T12:26:11;6.40;;;3.83;;
25191;SDS011;13143;50.924;5.320;2023-04-24T12:28:41;11.02;;;4.18;;
25191;SDS011;13143;50.924;5.320;2023-04-24T12:31:07;13.10;;;5.20;;
25191;SDS011;13143;50.924;5.320;2023-04-24T12:33:34;10.98;;;4.80;;
25191;SDS011;13143;50.924;5.320;2023-04-24T12:36:00;11.18;;;4.97;;
25191;SDS011;13143;50.924;5.320;2023-04-24T12:38:28;9.60;;;4.25;;
25191;SDS011;13143;50.924;5.320;2023-04-24T12:41:02;9.85;;;4.30;;
25191;SDS011;13143;50.924;5.320;2023-04-24T12:43:30;13.38;;;4.50;;
25191;SDS011;13143;50.924;5.320;2023-04-24T12:45:56;11.77;;;4.72;;
25191;SDS011;13143;50.924;5.320;2023-04-24T12:48:22;9.35;;;4.00;;
25191;SDS011;13143;50.924;5.320;2023-04-24T12:50:48;12.02;;;4.45;;
25191;SDS011;13143;50.924;5.320;2023-04-24T12:53:14;11.07;;;4.38;;
25191;SDS011;13143;50.924;5.320;2023-04-24T12:55:41;9.07;;;4.47;;
25191;SDS011;13143;50.924;5.320;2023-04-24T12:58:07;15.60;;;4.70;;
25191;SDS011;13143;50.924;5.320;2023-04-24T13:00:33;13.18;;;4.35;;
25191;SDS011;13143;50.924;5.320;2023-04-24T13:02:59;14.57;;;4.53;;
25191;SDS011;13143;50.924;5.320;2023-04-24T13:05:26;12.38;;;4.80;;
25191;SDS011;13143;50.924;5.320;2023-04-24T13:07:52;17.02;;;5.10;;
25191;SDS011;13143;50.924;5.320;2023-04-24T13:10:18;8.85;;;4.72;;
25191;SDS011;13143;50.924;5.320;2023-04-24T13:12:45;17.60;;;4.80;;
25191;SDS011;13143;50.924;5.320;2023-04-24T13:15:11;10.70;;;5.35;;
25191;SDS011;13143;50.924;5.320;2023-04-24T13:17:37;13.35;;;4.95;;
25191;SDS011;13143;50.924;5.320;2023-04-24T13:20:04;11.13;;;4.82;;
25191;SDS011;13143;50.924;5.320;2023-04-24T13:22:30;12.25;;;4.65;;
25191;SDS011;13143;50.924;5.320;2023-04-24T13:24:56;10.95;;;4.90;;
25191;SDS011;13143;50.924;5.320;2023-04-24T13:27:22;12.45;;;4.97;;
25191;SDS011;13143;50.924;5.320;2023-04-24T13:29:48;10.73;;;5.05;;
25191;SDS011;13143;50.924;5.320;2023-04-24T13:32:14;8.57;;;4.22;;
25191;SDS011;13143;50.924;5.320;2023-04-24T13:34:41;9.52;;;4.30;;
25191;SDS011;13143;50.924;5.320;2023-04-24T13:37:07;10.38;;;5.50;;
25191;SDS011;13143;50.924;5.320;2023-04-24T13:39:33;16.65;;;5.40;;
25191;SDS011;13143;50.924;5.320;2023-04-24T13:41:59;12.48;;;5.13;;
25191;SDS011;13143;50.924;5.320;2023-04-24T13:44:26;14.07;;;5.07;;
25191;SDS011;13143;50.924;5.320;2023-04-24T13:46:53;10.63;;;5.55;;
25191;SDS011;13143;50.924;5.320;2023-04-24T13:49:22;12.43;;;5.07;;
25191;SDS011;13143;50.924;5.320;2023-04-24T13:51:50;8.95;;;4.80;;
25191;SDS011;13143;50.924;5.320;2023-04-24T13:54:17;14.38;;;5.60;;
25191;SDS011;13143;50.924;5.320;2023-04-24T13:56:43;9.77;;;5.05;;
25191;SDS011;13143;50.924;5.320;2023-04-24T13:59:09;14.63;;;5.28;;
25191;SDS011;13143;50.924;5.320;2023-04-24T14:01:37;9.65;;;5.03;;
25191;SDS011;13143;50.924;5.320;2023-04-24T14:04:03;12.85;;;4.80;;
25191;SDS011;13143;50.924;5.320;2023-04-24T14:06:29;13.38;;;5.18;;
25191;SDS011;13143;50.924;5.320;2023-04-24T14:08:56;11.60;;;5.20;;
25191;SDS011;13143;50.924;5.320;2023-04-24T14:11:22;8.40;;;4.40;;
25191;SDS011;13143;50.924;5.320;2023-04-24T14:13:49;11.40;;;4.80;;
25191;SDS011;13143;50.924;5.320;2023-04-24T14:16:15;13.43;;;4.45;;
25191;SDS011;13143;50.924;5.320;2023-04-24T14:18:41;15.90;;;4.78;;
25191;SDS011;13143;50.924;5.320;2023-04-24T14:21:07;12.00;;;4.10;;
25191;SDS011;13143;50.924;5.320;2023-04-24T14:23:33;11.15;;;4.50;;
25191;SDS011;13143;50.924;5.320;2023-04-24T14:25:59;11.63;;;4.68;;
25191;SDS011;13143;50.924;5.320;2023-04-24T14:28:26;13.68;;;5.10;;
25191;SDS011;13143;50.924;5.320;2023-04-24T14:30:52;13.80;;;5.35;;
25191;SDS011;13143;50.924;5.320;2023-04-24T14:33:18;9.38;;;4.57;;
25191;SDS011;13143;50.924;5.320;2023-04-24T14:35:45;8.15;;;4.20;;
25191;SDS011;13143;50.924;5.320;2023-04-24T14:38:11;11.68;;;4.43;;
25191;SDS011;13143;50.924;5.320;2023-04-24T14:40:37;8.57;;;4.40;;
25191;SDS011;13143;50.924;5.320;2023-04-24T14:43:04;10.98;;;4.25;;
25191;SDS011;13143;50.924;5.320;2023-04-24T14:45:30;9.20;;;4.30;;